Time;durP1;ratioP1;P1;durP2;ratioP2;P2;SDS_P1;SDS_P2;PMS_P1;PMS_P2;Temp;Humidity;BMP_temperature;BMP_pressure;BME280_temperature;BME280_humidity;BME280_pressure;Samples;Min_cycle;Max_cycle;Signal;HPM_P1;HPM_P2
2024/04/24 00:00:08;;;;;;;;;;;20.60;54.40;;;;;;5427533;26;19936;-40
2024/04/24 00:02:35;;;;;;;;;;;20.60;54.50;;;;;;5426403;26;20254;-40
2024/04/24 00:05:04;;;;;;;;;;;20.60;54.50;;;;;;5427675;26;19929;-42
2024/04/24 00:07:30;;;;;;;;;;;20.60;54.40;;;;;;5427148;26;19936;-40
2024/04/24 00:09:56;;;;;;;;;;;20.60;54.50;;;;;;5427074;26;19936;-39
2024/04/24 00:12:22;;;;;;;;;;;20.60;54.70;;;;;;5427501;26;20423;-40
2024/04/24 00:14:48;;;;;;;;;;;20.60;54.90;;;;;;5426645;26;19929;-40
2024/04/24 00:17:14;;;;;;;;;;;20.50;54.40;;;;;;5425284;26;19941;-40
2024/04/24 00:19:40;;;;;;;;;;;20.50;54.00;;;;;;5426399;26;19929;-39
2024/04/24 00:22:06;;;;;;;;;;;20.50;54.10;;;;;;5427006;26;19929;-41
2024/04/24 00:24:32;;;;;;;;;;;20.50;53.80;;;;;;5427540;26;19929;-39
2024/04/24 00:26:58;;;;;;;;;;;20.50;53.80;;;;;;5413426;26;19997;-40
2024/04/24 00:29:24;;;;;;;;;;;20.50;53.80;;;;;;5423157;26;19929;-39
2024/04/24 00:31:51;;;;;;;;;;;20.50;53.80;;;;;;5425801;26;20002;-39
2024/04/24 00:34:18;;;;;;;;;;;20.50;53.90;;;;;;5421466;26;19929;-40
2024/04/24 00:36:44;;;;;;;;;;;20.50;53.80;;;;;;5426974;26;19935;-39
2024/04/24 00:39:10;;;;;;;;;;;20.40;53.80;;;;;;5427555;26;20011;-40
2024/04/24 00:41:36;;;;;;;;;;;20.40;53.70;;;;;;5427504;26;19937;-41
2024/04/24 00:44:02;;;;;;;;;;;20.40;53.70;;;;;;5427113;26;19936;-40
2024/04/24 00:46:28;;;;;;;;;;;20.40;53.80;;;;;;5427584;26;19941;-41
2024/04/24 00:48:54;;;;;;;;;;;20.40;53.90;;;;;;5426632;26;19929;-40
2024/04/24 00:51:20;;;;;;;;;;;20.40;54.10;;;;;;5389243;26;19976;-40
2024/04/24 00:53:46;;;;;;;;;;;20.40;54.20;;;;;;5379692;26;19953;-40
2024/04/24 00:56:12;;;;;;;;;;;20.30;54.20;;;;;;5426702;26;19932;-43
2024/04/24 00:58:38;;;;;;;;;;;20.30;54.40;;;;;;5425967;26;19975;-40
2024/04/24 01:01:05;;;;;;;;;;;20.30;54.40;;;;;;5380487;26;19936;-41
2024/04/24 01:03:31;;;;;;;;;;;20.30;54.40;;;;;;5428064;26;19929;-40
2024/04/24 01:05:57;;;;;;;;;;;20.30;54.00;;;;;;5366390;26;19954;-40
2024/04/24 01:08:23;;;;;;;;;;;20.30;54.10;;;;;;5425956;26;19936;-41
2024/04/24 01:10:59;;;;;;;;;;;20.30;53.90;;;;;;5425601;26;19938;-41
2024/04/24 01:13:25;;;;;;;;;;;20.20;53.80;;;;;;5426292;26;19941;-40
2024/04/24 01:16:11;;;;;;;;;;;20.30;53.90;;;;;;5425700;26;19936;-40
2024/04/24 01:18:38;;;;;;;;;;;20.20;53.90;;;;;;5424865;26;19929;-40
2024/04/24 01:21:04;;;;;;;;;;;20.20;53.90;;;;;;5426193;26;19940;-40
2024/04/24 01:23:33;;;;;;;;;;;20.20;54.50;;;;;;5426081;26;19941;-41
2024/04/24 01:26:08;;;;;;;;;;;20.20;53.80;;;;;;5412814;26;19975;-40
2024/04/24 01:28:34;;;;;;;;;;;20.20;53.80;;;;;;5426005;26;19936;-40
2024/04/24 01:31:00;;;;;;;;;;;20.10;53.80;;;;;;5425812;26;19937;-40
2024/04/24 01:33:26;;;;;;;;;;;20.10;53.60;;;;;;5420711;26;19946;-39
2024/04/24 01:35:52;;;;;;;;;;;20.10;53.40;;;;;;5425578;26;19929;-39
2024/04/24 01:38:18;;;;;;;;;;;20.10;53.50;;;;;;5425695;26;19953;-40
2024/04/24 01:40:45;;;;;;;;;;;20.10;53.70;;;;;;5424791;26;19929;-40
2024/04/24 01:43:12;;;;;;;;;;;20.10;53.70;;;;;;5426530;26;19932;-38
2024/04/24 01:46:01;;;;;;;;;;;20.00;53.60;;;;;;5425296;26;19941;-39
2024/04/24 01:48:27;;;;;;;;;;;20.00;53.60;;;;;;5422637;26;20357;-40
2024/04/24 01:50:55;;;;;;;;;;;20.00;53.70;;;;;;5425535;26;19983;-39
2024/04/24 01:53:21;;;;;;;;;;;20.00;53.70;;;;;;5426014;26;19933;-40
2024/04/24 01:55:47;;;;;;;;;;;20.00;53.70;;;;;;5425723;26;19929;-39
2024/04/24 01:58:13;;;;;;;;;;;20.00;53.70;;;;;;5425801;26;19929;-41
2024/04/24 02:00:41;;;;;;;;;;;19.90;53.70;;;;;;5423071;26;19949;-40
2024/04/24 02:03:08;;;;;;;;;;;19.90;53.80;;;;;;5380871;26;19975;-39
2024/04/24 02:05:35;;;;;;;;;;;19.90;53.80;;;;;;5425480;26;19940;-42
2024/04/24 02:08:01;;;;;;;;;;;19.90;53.80;;;;;;5425787;26;19929;-40
2024/04/24 02:10:28;;;;;;;;;;;19.90;53.80;;;;;;5425563;26;19929;-40
2024/04/24 02:12:54;;;;;;;;;;;19.90;53.90;;;;;;5420999;26;19943;-40
2024/04/24 02:15:20;;;;;;;;;;;19.80;53.90;;;;;;5425465;26;20258;-40
2024/04/24 02:17:46;;;;;;;;;;;19.90;53.90;;;;;;5422973;26;19953;-39
2024/04/24 02:20:12;;;;;;;;;;;19.80;54.00;;;;;;5425174;26;19929;-40
2024/04/24 02:22:38;;;;;;;;;;;19.80;54.00;;;;;;5424963;26;19961;-39
2024/04/24 02:27:49;;;;;;;;;;;19.70;54.00;;;;;;5421519;26;19999;-40
2024/04/24 02:30:15;;;;;;;;;;;19.80;54.10;;;;;;5424707;26;20432;-41
2024/04/24 02:32:42;;;;;;;;;;;19.70;54.10;;;;;;5422507;26;19929;-40
2024/04/24 02:35:08;;;;;;;;;;;19.70;54.20;;;;;;5425289;26;19929;-39
2024/04/24 02:37:35;;;;;;;;;;;19.70;54.20;;;;;;5423904;26;19937;-39
2024/04/24 02:40:01;;;;;;;;;;;19.70;54.30;;;;;;5425254;26;19936;-39
2024/04/24 02:42:27;;;;;;;;;;;19.60;54.20;;;;;;5425162;26;19932;-40
2024/04/24 02:44:54;;;;;;;;;;;19.60;54.30;;;;;;5424877;26;19983;-41
2024/04/24 02:47:20;;;;;;;;;;;19.60;54.30;;;;;;5425049;26;19929;-40
2024/04/24 02:49:46;;;;;;;;;;;19.60;54.30;;;;;;5423873;26;19970;-39
2024/04/24 02:52:14;;;;;;;;;;;19.60;54.40;;;;;;5424897;26;19936;-40
2024/04/24 02:54:40;;;;;;;;;;;19.60;54.40;;;;;;5424527;26;20380;-40
2024/04/24 02:57:06;;;;;;;;;;;19.50;54.40;;;;;;5423910;26;19961;-40
2024/04/24 02:59:32;;;;;;;;;;;19.50;54.40;;;;;;5423718;26;19937;-40
2024/04/24 03:02:00;;;;;;;;;;;19.50;54.40;;;;;;5420876;26;19994;-40
2024/04/24 03:04:26;;;;;;;;;;;19.50;54.50;;;;;;5425001;26;19975;-38
2024/04/24 03:06:52;;;;;;;;;;;19.50;54.60;;;;;;5423624;26;19933;-39
2024/04/24 03:09:18;;;;;;;;;;;19.50;54.60;;;;;;5422551;26;19935;-41
2024/04/24 03:11:44;;;;;;;;;;;19.40;54.60;;;;;;5423650;26;19929;-40
2024/04/24 03:14:12;;;;;;;;;;;19.40;54.60;;;;;;5424389;26;19929;-40
2024/04/24 03:16:38;;;;;;;;;;;19.40;54.70;;;;;;5423614;26;19929;-38
2024/04/24 03:19:04;;;;;;;;;;;19.40;54.70;;;;;;5424161;26;19955;-40
2024/04/24 03:21:30;;;;;;;;;;;19.40;54.70;;;;;;5379886;26;20297;-40
2024/04/24 03:23:56;;;;;;;;;;;19.40;54.80;;;;;;5422964;26;20039;-40
2024/04/24 03:26:22;;;;;;;;;;;19.30;54.80;;;;;;5424512;26;20403;-41
2024/04/24 03:28:48;;;;;;;;;;;19.30;54.80;;;;;;5425937;26;20001;-41
2024/04/24 03:31:14;;;;;;;;;;;19.30;54.80;;;;;;5426364;26;19929;-41
2024/04/24 03:33:39;;;;;;;;;;;19.30;54.90;;;;;;5423139;26;19929;-41
2024/04/24 03:36:05;;;;;;;;;;;19.20;54.90;;;;;;5427926;26;19929;-41
2024/04/24 03:38:31;;;;;;;;;;;19.20;54.90;;;;;;5427648;26;19935;-41
2024/04/24 03:40:57;;;;;;;;;;;19.20;55.00;;;;;;5426578;26;19929;-40
2024/04/24 03:43:23;;;;;;;;;;;19.20;55.00;;;;;;5427692;26;19935;-40
2024/04/24 03:45:49;;;;;;;;;;;19.20;55.00;;;;;;5427077;26;20510;-40
2024/04/24 03:48:15;;;;;;;;;;;19.20;55.10;;;;;;5396285;26;19935;-41
2024/04/24 03:50:41;;;;;;;;;;;19.10;55.10;;;;;;5426698;26;19936;-40
2024/04/24 03:53:06;;;;;;;;;;;19.10;55.10;;;;;;5427408;26;19997;-40
2024/04/24 03:55:32;;;;;;;;;;;19.10;55.20;;;;;;5427328;26;19935;-40
2024/04/24 03:57:58;;;;;;;;;;;19.10;55.20;;;;;;5426852;26;19974;-40
2024/04/24 04:00:24;;;;;;;;;;;19.10;55.20;;;;;;5427458;26;19929;-41
2024/04/24 04:02:50;;;;;;;;;;;19.00;55.20;;;;;;5426718;26;19948;-40
2024/04/24 04:05:16;;;;;;;;;;;19.00;55.30;;;;;;5427434;26;19941;-40
2024/04/24 04:07:42;;;;;;;;;;;19.00;55.30;;;;;;5426966;26;19936;-41
2024/04/24 04:10:08;;;;;;;;;;;19.00;55.30;;;;;;5427375;26;19936;-40
2024/04/24 04:12:34;;;;;;;;;;;19.00;55.40;;;;;;5426998;26;19933;-39
2024/04/24 04:14:59;;;;;;;;;;;19.00;55.40;;;;;;5427346;26;19961;-40
2024/04/24 04:17:25;;;;;;;;;;;18.90;55.40;;;;;;5427178;26;19936;-44
2024/04/24 04:19:51;;;;;;;;;;;18.90;55.40;;;;;;5426608;26;19975;-40
2024/04/24 04:22:17;;;;;;;;;;;18.90;55.50;;;;;;5426716;26;19933;-40
2024/04/24 04:24:43;;;;;;;;;;;18.90;55.50;;;;;;5426956;26;20289;-41
2024/04/24 04:27:09;;;;;;;;;;;18.90;55.50;;;;;;5427070;26;19973;-39
2024/04/24 04:29:35;;;;;;;;;;;18.80;55.50;;;;;;5406129;26;20032;-43
2024/04/24 04:32:01;;;;;;;;;;;18.80;55.60;;;;;;5421747;26;19942;-40
2024/04/24 04:34:26;;;;;;;;;;;18.80;55.70;;;;;;5426741;26;19929;-41
2024/04/24 04:36:52;;;;;;;;;;;18.80;55.70;;;;;;5426909;26;19974;-41
2024/04/24 04:39:18;;;;;;;;;;;18.80;55.70;;;;;;5426435;26;20341;-41
2024/04/24 04:41:44;;;;;;;;;;;18.80;55.70;;;;;;5424414;26;19954;-40
2024/04/24 04:44:10;;;;;;;;;;;18.70;55.80;;;;;;5426869;26;19929;-41
2024/04/24 04:46:36;;;;;;;;;;;18.70;55.90;;;;;;5426375;26;19938;-41
2024/04/24 04:49:04;;;;;;;;;;;18.70;55.90;;;;;;5426900;26;19928;-42
2024/04/24 04:51:30;;;;;;;;;;;18.70;55.90;;;;;;5425862;26;19939;-40
2024/04/24 04:53:56;;;;;;;;;;;18.70;56.00;;;;;;5427446;26;19933;-40
2024/04/24 04:56:25;;;;;;;;;;;18.60;56.00;;;;;;5427454;26;20804;-39
2024/04/24 04:58:51;;;;;;;;;;;18.60;56.00;;;;;;5426216;26;19945;-39
2024/04/24 05:01:17;;;;;;;;;;;18.60;56.00;;;;;;5426206;26;19982;-40
2024/04/24 05:03:43;;;;;;;;;;;18.60;56.10;;;;;;5426411;26;19937;-40
2024/04/24 05:06:09;;;;;;;;;;;18.60;56.10;;;;;;5393016;26;19933;-40
2024/04/24 05:08:35;;;;;;;;;;;18.60;56.10;;;;;;5426659;26;19998;-40
2024/04/24 05:11:01;;;;;;;;;;;18.50;56.10;;;;;;5425720;26;19929;-40
2024/04/24 05:13:27;;;;;;;;;;;18.50;56.20;;;;;;5426968;26;19928;-42
2024/04/24 05:15:52;;;;;;;;;;;18.50;56.20;;;;;;5426686;26;20270;-40
2024/04/24 05:18:18;;;;;;;;;;;18.50;56.30;;;;;;5426286;26;19937;-41
2024/04/24 05:20:44;;;;;;;;;;;18.50;56.30;;;;;;5425788;26;19929;-40
2024/04/24 05:23:10;;;;;;;;;;;18.40;56.30;;;;;;5426891;26;20612;-40
2024/04/24 05:25:38;;;;;;;;;;;18.40;56.30;;;;;;5426462;26;19940;-42
2024/04/24 05:30:51;;;;;;;;;;;18.40;56.40;;;;;;5426278;26;19983;-40
2024/04/24 05:33:17;;;;;;;;;;;18.40;56.50;;;;;;5421089;26;19998;-40
2024/04/24 05:35:43;;;;;;;;;;;18.30;56.40;;;;;;5425991;26;19936;-41
2024/04/24 05:38:09;;;;;;;;;;;18.30;57.10;;;;;;5426608;26;19941;-39
2024/04/24 05:40:35;;;;;;;;;;;18.30;56.50;;;;;;5426662;26;19956;-39
2024/04/24 05:43:04;;;;;;;;;;;18.30;56.50;;;;;;5426399;26;19933;-40
2024/04/24 05:45:30;;;;;;;;;;;18.30;56.50;;;;;;5395664;26;20507;-43
2024/04/24 05:47:56;;;;;;;;;;;18.30;56.60;;;;;;5425856;26;19949;-40
2024/04/24 05:50:21;;;;;;;;;;;18.20;56.60;;;;;;5425900;26;20331;-43
2024/04/24 05:52:47;;;;;;;;;;;18.20;56.60;;;;;;5425340;26;20323;-42
2024/04/24 05:55:13;;;;;;;;;;;18.20;56.70;;;;;;5425970;26;19929;-41
2024/04/24 05:57:39;;;;;;;;;;;18.20;56.70;;;;;;5426367;26;19936;-40
2024/04/24 06:00:07;;;;;;;;;;;18.20;56.80;;;;;;5426070;26;19929;-43
2024/04/24 06:02:32;;;;;;;;;;;18.10;56.70;;;;;;5424754;26;19936;-41
2024/04/24 06:05:00;;;;;;;;;;;18.10;56.80;;;;;;5426040;26;19946;-40
2024/04/24 06:07:27;;;;;;;;;;;18.10;56.90;;;;;;5425585;26;19929;-42
2024/04/24 06:09:52;;;;;;;;;;;18.10;56.90;;;;;;5425671;26;19936;-40
2024/04/24 06:12:18;;;;;;;;;;;18.10;57.00;;;;;;5425752;26;19933;-40
2024/04/24 06:14:44;;;;;;;;;;;18.10;57.00;;;;;;5425655;26;19929;-40
2024/04/24 06:17:11;;;;;;;;;;;18.00;56.90;;;;;;5425220;26;19928;-40
2024/04/24 06:19:37;;;;;;;;;;;18.00;57.00;;;;;;5424873;26;20032;-41
2024/04/24 06:22:03;;;;;;;;;;;18.00;57.00;;;;;;5425054;26;19936;-41
2024/04/24 06:24:29;;;;;;;;;;;18.00;57.10;;;;;;5425584;26;19941;-41
2024/04/24 06:26:55;;;;;;;;;;;18.00;57.10;;;;;;5425609;26;20282;-41
2024/04/24 06:29:21;;;;;;;;;;;17.90;57.00;;;;;;5426001;26;19936;-41
2024/04/24 06:31:47;;;;;;;;;;;17.90;57.10;;;;;;5425233;26;19965;-40
2024/04/24 06:34:13;;;;;;;;;;;17.90;57.10;;;;;;5425249;26;20289;-40
2024/04/24 06:36:39;;;;;;;;;;;17.90;57.20;;;;;;5423382;26;19933;-40
2024/04/24 06:39:05;;;;;;;;;;;17.90;57.20;;;;;;5425555;26;20004;-41
2024/04/24 06:41:31;;;;;;;;;;;17.90;57.20;;;;;;5425164;26;19944;-42
2024/04/24 06:43:56;;;;;;;;;;;17.90;57.20;;;;;;5425582;26;19929;-40
2024/04/24 06:46:22;;;;;;;;;;;17.80;57.20;;;;;;5425348;26;19975;-40
2024/04/24 06:48:48;;;;;;;;;;;17.80;57.30;;;;;;5416039;26;19929;-40
2024/04/24 06:51:14;;;;;;;;;;;17.80;57.30;;;;;;5424803;26;20011;-44
2024/04/24 06:53:40;;;;;;;;;;;17.80;57.30;;;;;;5425004;26;19935;-41
2024/04/24 06:56:06;;;;;;;;;;;17.80;57.40;;;;;;5424382;26;19933;-40
2024/04/24 06:58:34;;;;;;;;;;;17.80;57.40;;;;;;5424636;26;19936;-41
2024/04/24 07:01:04;;;;;;;;;;;17.70;57.40;;;;;;5420177;26;19934;-40
2024/04/24 07:03:30;;;;;;;;;;;17.70;57.50;;;;;;5425849;26;19961;-40
2024/04/24 07:05:56;;;;;;;;;;;17.70;57.50;;;;;;5427401;26;19933;-42
2024/04/24 07:08:22;;;;;;;;;;;17.70;57.50;;;;;;5428351;26;19933;-42
2024/04/24 07:10:48;;;;;;;;;;;17.70;57.50;;;;;;5426721;26;19933;-44
2024/04/24 07:13:14;;;;;;;;;;;17.70;57.50;;;;;;5428742;26;19933;-41
2024/04/24 07:15:40;;;;;;;;;;;17.70;57.60;;;;;;5427283;26;19941;-41
2024/04/24 07:18:06;;;;;;;;;;;17.70;57.60;;;;;;5427916;26;19935;-40
2024/04/24 07:20:32;;;;;;;;;;;17.60;57.50;;;;;;5426978;26;20416;-40
2024/04/24 07:22:58;;;;;;;;;;;17.70;57.60;;;;;;5427911;26;19940;-43
2024/04/24 07:25:24;;;;;;;;;;;17.70;57.60;;;;;;5427635;26;19933;-41
2024/04/24 07:27:50;;;;;;;;;;;17.60;57.60;;;;;;5427703;26;19974;-42
2024/04/24 07:30:16;;;;;;;;;;;17.60;57.60;;;;;;5428357;26;20403;-41
2024/04/24 07:32:41;;;;;;;;;;;17.60;57.60;;;;;;5426684;26;19929;-41
2024/04/24 07:35:08;;;;;;;;;;;17.50;57.60;;;;;;5427563;26;19929;-41
2024/04/24 07:37:34;;;;;;;;;;;17.50;57.60;;;;;;5426999;26;19936;-41
2024/04/24 07:40:00;;;;;;;;;;;17.60;57.70;;;;;;5414429;26;19932;-40
2024/04/24 07:42:25;;;;;;;;;;;17.50;57.70;;;;;;5427707;26;19929;-41
2024/04/24 07:44:52;;;;;;;;;;;17.50;57.70;;;;;;5427048;26;19998;-41
2024/04/24 07:47:18;;;;;;;;;;;17.50;57.80;;;;;;5427541;26;19929;-41
2024/04/24 07:49:44;;;;;;;;;;;17.50;57.80;;;;;;5427149;26;19935;-41
2024/04/24 07:52:10;;;;;;;;;;;17.50;57.80;;;;;;5427351;26;19940;-42
2024/04/24 07:54:36;;;;;;;;;;;17.40;57.80;;;;;;5427467;26;19936;-41
2024/04/24 07:57:02;;;;;;;;;;;17.40;57.80;;;;;;5427636;26;19933;-41
2024/04/24 07:59:28;;;;;;;;;;;17.40;57.80;;;;;;5396300;26;19956;-43
2024/04/24 08:01:54;;;;;;;;;;;17.40;57.80;;;;;;5426679;26;21055;-40
2024/04/24 08:04:19;;;;;;;;;;;17.40;57.90;;;;;;5427604;26;19929;-44
2024/04/24 08:06:45;;;;;;;;;;;17.40;57.90;;;;;;5426602;26;19930;-40
2024/04/24 08:09:11;;;;;;;;;;;17.40;58.00;;;;;;5427053;26;20401;-39
2024/04/24 08:11:37;;;;;;;;;;;17.40;58.00;;;;;;5426713;26;19949;-40
2024/04/24 08:14:05;;;;;;;;;;;17.30;58.00;;;;;;5414600;26;19929;-40
2024/04/24 08:16:32;;;;;;;;;;;17.30;58.00;;;;;;5426209;26;19929;-41
2024/04/24 08:18:58;;;;;;;;;;;17.30;58.10;;;;;;5426772;26;19935;-40
2024/04/24 08:21:23;;;;;;;;;;;17.30;58.10;;;;;;5426862;26;19929;-41
2024/04/24 08:23:49;;;;;;;;;;;17.30;58.10;;;;;;5426434;26;19936;-39
2024/04/24 08:26:16;;;;;;;;;;;17.30;58.10;;;;;;5427024;26;20374;-42
2024/04/24 08:28:42;;;;;;;;;;;17.20;58.10;;;;;;5426487;26;19949;-41
2024/04/24 08:31:08;;;;;;;;;;;17.20;58.10;;;;;;5425240;26;20615;-42
2024/04/24 08:33:34;;;;;;;;;;;17.20;58.10;;;;;;5426449;26;19936;-41
2024/04/24 08:36:02;;;;;;;;;;;17.20;58.20;;;;;;5426726;26;19929;-41
2024/04/24 08:38:28;;;;;;;;;;;17.20;58.20;;;;;;5426560;26;20246;-41
2024/04/24 08:40:54;;;;;;;;;;;17.20;58.30;;;;;;5426423;26;19935;-41
2024/04/24 08:43:20;;;;;;;;;;;17.10;58.30;;;;;;5427122;26;19929;-41
2024/04/24 08:45:47;;;;;;;;;;;17.10;58.30;;;;;;5426184;26;20303;-41
2024/04/24 08:48:13;;;;;;;;;;;17.10;58.30;;;;;;5426688;26;19929;-40
2024/04/24 08:50:39;;;;;;;;;;;17.10;58.40;;;;;;5426107;26;19936;-41
2024/04/24 08:53:04;;;;;;;;;;;17.10;58.30;;;;;;5426405;26;19937;-40
2024/04/24 08:55:30;;;;;;;;;;;17.10;58.40;;;;;;5390248;26;20379;-43
2024/04/24 08:57:56;;;;;;;;;;;17.10;58.40;;;;;;5423953;26;19929;-43
2024/04/24 09:00:22;;;;;;;;;;;17.00;58.40;;;;;;5426400;26;19929;-41
2024/04/24 09:02:51;;;;;;;;;;;17.00;58.40;;;;;;5425703;26;19929;-40
2024/04/24 09:05:17;;;;;;;;;;;17.00;58.40;;;;;;5426793;26;19945;-40
2024/04/24 09:07:43;;;;;;;;;;;17.00;58.50;;;;;;5380086;26;19945;-41
2024/04/24 09:10:09;;;;;;;;;;;17.00;58.50;;;;;;5426215;26;19929;-42
2024/04/24 09:12:35;;;;;;;;;;;16.90;58.50;;;;;;5394318;26;19956;-41
2024/04/24 09:15:01;;;;;;;;;;;16.90;58.60;;;;;;5395099;26;20397;-43
2024/04/24 09:17:27;;;;;;;;;;;16.90;58.60;;;;;;5426093;26;20365;-40
2024/04/24 09:19:53;;;;;;;;;;;16.90;58.60;;;;;;5425346;26;19949;-40
2024/04/24 09:22:19;;;;;;;;;;;16.90;58.70;;;;;;5426573;26;19936;-42
2024/04/24 09:24:49;;;;;;;;;;;16.90;58.70;;;;;;5425785;26;19936;-41
2024/04/24 09:27:18;;;;;;;;;;;16.90;58.70;;;;;;5425531;26;19933;-41
2024/04/24 09:29:44;;;;;;;;;;;16.90;58.70;;;;;;5425391;26;19936;-42
2024/04/24 09:32:10;;;;;;;;;;;16.90;58.70;;;;;;5424713;26;19929;-40
2024/04/24 09:34:36;;;;;;;;;;;16.90;58.70;;;;;;5425946;26;19929;-41
2024/04/24 09:37:02;;;;;;;;;;;16.90;58.70;;;;;;5425896;26;19950;-41
2024/04/24 09:39:30;;;;;;;;;;;16.80;58.70;;;;;;5426177;26;19940;-40
2024/04/24 09:41:56;;;;;;;;;;;16.80;58.70;;;;;;5425832;26;19944;-41
2024/04/24 09:44:27;;;;;;;;;;;16.80;58.80;;;;;;5426160;26;19956;-41
2024/04/24 09:46:54;;;;;;;;;;;16.80;58.80;;;;;;5425214;26;19933;-42
2024/04/24 09:49:20;;;;;;;;;;;16.80;58.80;;;;;;5425684;26;19998;-43
2024/04/24 09:51:46;;;;;;;;;;;16.80;58.90;;;;;;5425604;26;20323;-42
2024/04/24 09:54:12;;;;;;;;;;;16.70;58.80;;;;;;5425854;26;19933;-41
2024/04/24 09:56:41;;;;;;;;;;;16.70;58.90;;;;;;5424999;26;19975;-40
2024/04/24 09:59:08;;;;;;;;;;;16.70;58.90;;;;;;5414049;26;19936;-41
2024/04/24 10:01:34;;;;;;;;;;;16.70;58.90;;;;;;5425351;26;19975;-41
2024/04/24 10:04:00;;;;;;;;;;;16.70;58.90;;;;;;5425614;26;19930;-42
2024/04/24 10:06:26;;;;;;;;;;;16.70;58.90;;;;;;5425946;26;19935;-44
2024/04/24 10:08:54;;;;;;;;;;;16.70;58.90;;;;;;5392195;26;19929;-42
2024/04/24 10:11:20;;;;;;;;;;;16.70;59.00;;;;;;5425464;26;19937;-41
2024/04/24 10:13:48;;;;;;;;;;;16.60;58.90;;;;;;5425177;26;19975;-40
2024/04/24 10:16:14;;;;;;;;;;;16.60;59.00;;;;;;5425494;26;19936;-44
2024/04/24 10:18:40;;;;;;;;;;;16.60;59.00;;;;;;5423957;26;19929;-40
2024/04/24 10:21:08;;;;;;;;;;;16.60;59.00;;;;;;5425288;26;19929;-41
2024/04/24 10:23:34;;;;;;;;;;;16.60;59.10;;;;;;5386909;26;19940;-41
2024/04/24 10:26:00;;;;;;;;;;;16.60;59.10;;;;;;5392070;26;20373;-41
2024/04/24 10:28:26;;;;;;;;;;;16.60;59.20;;;;;;5425293;26;19929;-44
2024/04/24 10:30:52;;;;;;;;;;;16.60;59.20;;;;;;5424980;26;19949;-41
2024/04/24 10:33:18;;;;;;;;;;;16.50;59.10;;;;;;5424894;26;19929;-41
2024/04/24 10:35:44;;;;;;;;;;;16.50;59.10;;;;;;5367590;26;20447;-41
2024/04/24 10:38:12;;;;;;;;;;;16.50;59.10;;;;;;5423376;26;20269;-40
2024/04/24 10:40:38;;;;;;;;;;;16.50;59.20;;;;;;5424584;26;19936;-40
2024/04/24 10:43:04;;;;;;;;;;;16.50;59.30;;;;;;5412398;26;19929;-42
2024/04/24 10:45:34;;;;;;;;;;;16.50;59.30;;;;;;5425119;26;19937;-41
2024/04/24 10:48:00;;;;;;;;;;;16.50;59.30;;;;;;5425015;26;19936;-41
2024/04/24 10:50:26;;;;;;;;;;;16.50;59.30;;;;;;5424914;26;19929;-41
2024/04/24 10:52:52;;;;;;;;;;;16.50;59.30;;;;;;5424388;26;19944;-43
2024/04/24 10:55:18;;;;;;;;;;;16.40;59.30;;;;;;5417075;26;19933;-41
2024/04/24 10:57:50;;;;;;;;;;;16.40;59.30;;;;;;5423768;26;20005;-43
2024/04/24 11:00:29;;;;;;;;;;;16.40;59.40;;;;;;5425302;26;19935;-45
2024/04/24 11:02:58;;;;;;;;;;;16.40;59.40;;;;;;5418905;26;19933;-42
2024/04/24 11:05:24;;;;;;;;;;;16.40;59.40;;;;;;5422171;26;20473;-41
2024/04/24 11:08:00;;;;;;;;;;;16.40;59.50;;;;;;5423758;26;20006;-41
2024/04/24 11:10:26;;;;;;;;;;;16.30;59.50;;;;;;5424045;26;19974;-41
2024/04/24 11:12:52;;;;;;;;;;;16.40;59.50;;;;;;5423755;26;19945;-42
2024/04/24 11:15:24;;;;;;;;;;;16.30;59.50;;;;;;5424546;26;19949;-41
2024/04/24 11:17:52;;;;;;;;;;;16.30;59.50;;;;;;5366986;26;19949;-40
2024/04/24 11:20:19;;;;;;;;;;;16.30;59.60;;;;;;5424443;26;19932;-44
2024/04/24 11:22:45;;;;;;;;;;;16.30;59.60;;;;;;5424061;26;19941;-46
2024/04/24 11:25:11;;;;;;;;;;;16.30;59.60;;;;;;5424587;26;19974;-41
2024/04/24 11:27:37;;;;;;;;;;;16.30;59.60;;;;;;5423830;26;19933;-42
2024/04/24 11:30:16;;;;;;;;;;;16.30;59.60;;;;;;5423882;26;19929;-42
2024/04/24 11:32:46;;;;;;;;;;;16.30;59.60;;;;;;5422408;26;19929;-41
2024/04/24 11:35:12;;;;;;;;;;;16.20;59.70;;;;;;5423761;26;19932;-41
2024/04/24 11:37:38;;;;;;;;;;;16.20;59.70;;;;;;5423393;26;19939;-41
2024/04/24 11:40:04;;;;;;;;;;;16.20;59.70;;;;;;5380221;26;19929;-41
2024/04/24 11:42:30;;;;;;;;;;;16.20;59.70;;;;;;5392711;26;19936;-42
2024/04/24 11:44:57;;;;;;;;;;;16.20;59.70;;;;;;5424067;26;19929;-43
2024/04/24 11:47:22;;;;;;;;;;;16.20;59.80;;;;;;5390586;26;19936;-41
2024/04/24 11:49:49;;;;;;;;;;;16.20;59.80;;;;;;5425100;26;19937;-44
2024/04/24 11:52:15;;;;;;;;;;;16.10;59.70;;;;;;5383547;26;20659;-41
2024/04/24 11:54:44;;;;;;;;;;;16.10;59.80;;;;;;5427129;26;19983;-41
2024/04/24 11:57:10;;;;;;;;;;;16.10;59.80;;;;;;5396365;26;19944;-42
2024/04/24 11:59:41;;;;;;;;;;;16.10;59.80;;;;;;5426937;26;19976;-44
2024/04/24 12:02:07;;;;;;;;;;;16.10;59.90;;;;;;5409882;26;19928;-43
2024/04/24 12:04:33;;;;;;;;;;;16.10;59.90;;;;;;5426758;26;19936;-43
2024/04/24 12:06:58;;;;;;;;;;;16.10;59.90;;;;;;5427282;26;19929;-41
2024/04/24 12:09:24;;;;;;;;;;;16.10;59.90;;;;;;5427228;26;19998;-41
2024/04/24 12:11:50;;;;;;;;;;;16.10;60.00;;;;;;5426543;26;19936;-41
2024/04/24 12:14:16;;;;;;;;;;;16.10;60.00;;;;;;5427462;26;20710;-40
2024/04/24 12:16:42;;;;;;;;;;;16.00;59.90;;;;;;5426929;26;19955;-42
2024/04/24 12:19:08;;;;;;;;;;;16.00;59.90;;;;;;5427223;26;19928;-41
2024/04/24 12:21:34;;;;;;;;;;;16.00;60.00;;;;;;5423551;26;19936;-41
2024/04/24 12:24:00;;;;;;;;;;;16.00;60.00;;;;;;5413779;26;19929;-40
2024/04/24 12:26:26;;;;;;;;;;;16.00;60.00;;;;;;5427049;26;19929;-40
2024/04/24 12:28:52;;;;;;;;;;;16.00;59.90;;;;;;5426599;26;19937;-40
2024/04/24 12:31:18;;;;;;;;;;;16.00;60.00;;;;;;5427149;26;19936;-40
2024/04/24 12:33:44;;;;;;;;;;;16.00;60.00;;;;;;5426288;26;19929;-40
2024/04/24 12:36:10;;;;;;;;;;;16.00;60.00;;;;;;5427075;26;19929;-40
2024/04/24 12:38:36;;;;;;;;;;;16.00;60.00;;;;;;5426476;26;19936;-40
2024/04/24 12:41:01;;;;;;;;;;;16.00;60.00;;;;;;5426880;26;19929;-41
2024/04/24 12:43:27;;;;;;;;;;;16.00;60.00;;;;;;5426600;26;19929;-40
2024/04/24 12:45:53;;;;;;;;;;;16.00;60.10;;;;;;5426721;26;19929;-41
2024/04/24 12:48:19;;;;;;;;;;;16.00;60.10;;;;;;5426518;26;20434;-40
2024/04/24 12:50:45;;;;;;;;;;;16.00;60.10;;;;;;5424619;26;19936;-42
2024/04/24 12:53:12;;;;;;;;;;;16.00;60.00;;;;;;5415820;26;19936;-41
2024/04/24 12:55:40;;;;;;;;;;;16.00;59.90;;;;;;5426298;26;19929;-40
2024/04/24 12:58:06;;;;;;;;;;;16.00;60.00;;;;;;5426160;26;19940;-43
2024/04/24 13:00:32;;;;;;;;;;;16.00;59.90;;;;;;5425497;26;19933;-40
2024/04/24 13:02:58;;;;;;;;;;;16.00;59.90;;;;;;5420453;26;20753;-39
2024/04/24 13:05:24;;;;;;;;;;;16.00;59.90;;;;;;5426750;26;19929;-40
2024/04/24 13:07:50;;;;;;;;;;;16.00;59.90;;;;;;5424461;26;19979;-40
2024/04/24 13:10:16;;;;;;;;;;;16.00;59.90;;;;;;5423042;26;19929;-41
2024/04/24 13:12:42;;;;;;;;;;;16.00;59.80;;;;;;5426149;26;19928;-41
2024/04/24 13:15:07;;;;;;;;;;;16.00;59.80;;;;;;5426721;26;20647;-41
2024/04/24 13:17:34;;;;;;;;;;;16.00;59.80;;;;;;5425588;26;19953;-40
2024/04/24 13:20:01;;;;;;;;;;;16.00;59.80;;;;;;5421147;26;19965;-39
2024/04/24 13:22:27;;;;;;;;;;;16.00;59.80;;;;;;5387798;26;20258;-41
2024/04/24 13:24:52;;;;;;;;;;;16.00;59.80;;;;;;5426279;26;19936;-39
2024/04/24 13:27:18;;;;;;;;;;;16.00;59.80;;;;;;5426330;26;19937;-39
2024/04/24 13:29:44;;;;;;;;;;;16.00;59.80;;;;;;5425766;26;19936;-40
2024/04/24 13:32:10;;;;;;;;;;;16.00;59.70;;;;;;5425565;26;19929;-43
2024/04/24 13:34:36;;;;;;;;;;;16.00;59.70;;;;;;5425871;26;19940;-41
2024/04/24 13:37:02;;;;;;;;;;;16.00;59.70;;;;;;5426334;26;19933;-40
2024/04/24 13:39:28;;;;;;;;;;;16.00;59.70;;;;;;5425789;26;19929;-41
2024/04/24 13:41:54;;;;;;;;;;;16.00;59.60;;;;;;5425383;26;20312;-41
2024/04/24 13:44:20;;;;;;;;;;;16.00;59.60;;;;;;5426125;26;19929;-41
2024/04/24 13:46:46;;;;;;;;;;;16.00;59.60;;;;;;5425894;26;19929;-40
2024/04/24 13:49:11;;;;;;;;;;;16.00;59.50;;;;;;5425624;26;19929;-40
2024/04/24 13:51:37;;;;;;;;;;;16.00;59.50;;;;;;5425617;26;20365;-39
2024/04/24 13:54:03;;;;;;;;;;;16.00;59.40;;;;;;5426325;26;19928;-40
2024/04/24 13:56:29;;;;;;;;;;;16.00;59.40;;;;;;5426257;26;19935;-40
2024/04/24 13:58:55;;;;;;;;;;;16.00;59.40;;;;;;5425112;26;20367;-40
2024/04/24 14:01:21;;;;;;;;;;;16.00;59.40;;;;;;5425530;26;19929;-44
2024/04/24 14:03:47;;;;;;;;;;;16.00;59.40;;;;;;5425456;26;19929;-41
2024/04/24 14:06:13;;;;;;;;;;;16.10;59.40;;;;;;5426128;26;19941;-42
2024/04/24 14:08:39;;;;;;;;;;;16.10;59.30;;;;;;5425418;26;20323;-40
2024/04/24 14:11:09;;;;;;;;;;;16.10;59.30;;;;;;5426154;26;19929;-41
2024/04/24 14:13:35;;;;;;;;;;;16.10;59.30;;;;;;5424789;26;19936;-40
2024/04/24 14:16:01;;;;;;;;;;;16.10;59.30;;;;;;5412106;26;19957;-40